createdAt,value
2023-05-20T00:00:56.767Z,9.39
2023-05-20T00:02:01.005Z,9.39
2023-05-20T00:03:05.386Z,9.39
2023-05-20T00:04:09.791Z,9.38
2023-05-20T00:05:13.863Z,9.37
2023-05-20T00:06:18.191Z,9.36
2023-05-20T00:07:22.418Z,9.35
2023-05-20T00:08:26.744Z,9.34
2023-05-20T00:09:30.962Z,9.35
2023-05-20T00:10:35.257Z,9.36
2023-05-20T00:11:39.562Z,9.37
2023-05-20T00:12:43.760Z,9.38
2023-05-20T00:13:48.046Z,9.38
2023-05-20T00:14:53.719Z,9.39
2023-05-20T00:16:10.579Z,9.39
2023-05-20T00:17:13.498Z,9.39
2023-05-20T00:18:17.754Z,9.39
2023-05-20T00:19:22.110Z,9.39
2023-05-20T00:20:26.317Z,9.39
2023-05-20T00:21:30.536Z,9.39
2023-05-20T00:22:34.746Z,9.41
2023-05-20T00:23:38.922Z,9.42
2023-05-20T00:24:43.131Z,9.42
2023-05-20T00:25:47.443Z,9.43
2023-05-20T00:26:51.713Z,9.42
2023-05-20T00:27:55.949Z,9.42
2023-05-20T00:29:00.285Z,9.41
2023-05-20T00:30:10.601Z,9.40
2023-05-20T00:31:13.458Z,9.39
2023-05-20T00:32:17.763Z,9.38
2023-05-20T00:33:21.966Z,9.38
2023-05-20T00:34:26.349Z,9.39
2023-05-20T00:35:30.563Z,9.39
2023-05-20T00:36:34.853Z,9.39
2023-05-20T00:37:39.089Z,9.39
2023-05-20T00:38:43.341Z,9.39
2023-05-20T00:39:47.641Z,9.38
2023-05-20T00:40:51.925Z,9.36
2023-05-20T00:41:56.306Z,9.33
2023-05-20T00:43:00.532Z,9.32
2023-05-20T00:44:07.807Z,9.31
2023-05-20T00:45:11.107Z,9.30
2023-05-20T00:46:15.412Z,9.30
2023-05-20T00:47:19.580Z,9.29
2023-05-20T00:48:23.940Z,9.28
2023-05-20T00:49:28.220Z,9.28
2023-05-20T00:50:32.550Z,9.28
2023-05-20T00:51:36.724Z,9.28
2023-05-20T00:52:40.964Z,9.28
2023-05-20T00:53:59.219Z,9.27
2023-05-20T00:55:02.304Z,9.27
2023-05-20T00:56:06.521Z,9.28
2023-05-20T00:57:10.799Z,9.28
2023-05-20T00:58:15.043Z,9.29
2023-05-20T00:59:19.295Z,9.29
2023-05-20T01:00:23.602Z,9.29
2023-05-20T01:01:27.998Z,9.29
2023-05-20T01:02:32.263Z,9.29
2023-05-20T01:03:36.513Z,9.28
2023-05-20T01:04:40.707Z,9.28
2023-05-20T01:05:44.902Z,9.29
2023-05-20T01:06:49.175Z,9.30
2023-05-20T01:07:53.437Z,9.29
2023-05-20T01:08:57.663Z,9.30
2023-05-20T01:10:02.000Z,9.30
2023-05-20T01:11:06.242Z,9.31
2023-05-20T01:12:10.590Z,9.31
2023-05-20T01:13:14.804Z,9.31
2023-05-20T01:14:19.069Z,9.32
2023-05-20T01:15:23.369Z,9.32
2023-05-20T01:16:27.643Z,9.32
2023-05-20T01:17:31.940Z,9.32
2023-05-20T01:18:36.112Z,9.31
2023-05-20T01:19:40.391Z,9.31
2023-05-20T01:20:44.748Z,9.31
2023-05-20T01:21:49.089Z,9.31
2023-05-20T01:22:53.286Z,9.31
2023-05-20T01:23:57.560Z,9.32
2023-05-20T01:25:01.892Z,9.31
2023-05-20T01:26:06.191Z,9.31
2023-05-20T01:27:10.510Z,9.31
2023-05-20T01:28:14.835Z,9.31
2023-05-20T01:29:19.044Z,9.31
2023-05-20T01:30:23.293Z,9.31
2023-05-20T01:31:27.664Z,9.30
2023-05-20T01:32:31.847Z,9.29
2023-05-20T01:33:36.112Z,9.28
2023-05-20T01:34:40.430Z,9.27
2023-05-20T01:35:44.626Z,9.26
2023-05-20T01:36:48.906Z,9.25
2023-05-20T01:37:53.210Z,9.24
2023-05-20T01:38:57.528Z,9.23
2023-05-20T01:40:01.731Z,9.21
2023-05-20T01:41:06.078Z,9.19
2023-05-20T01:42:10.296Z,9.17
2023-05-20T01:43:16.189Z,9.15
2023-05-20T01:44:18.971Z,9.15
2023-05-20T01:45:23.168Z,9.14
2023-05-20T01:46:27.620Z,9.13
2023-05-20T01:47:31.760Z,9.13
2023-05-20T01:48:36.062Z,9.12
2023-05-20T01:49:40.351Z,9.10
2023-05-20T01:50:44.544Z,9.08
2023-05-20T01:51:48.818Z,9.07
2023-05-20T01:52:53.111Z,9.05
2023-05-20T01:53:57.426Z,9.04
2023-05-20T01:55:01.632Z,9.04
2023-05-20T01:56:05.891Z,9.03
2023-05-20T01:57:10.135Z,9.02
2023-05-20T01:58:14.400Z,9.01
2023-05-20T01:59:18.822Z,8.98
2023-05-20T02:00:22.994Z,8.95
2023-05-20T02:01:27.441Z,8.94
2023-05-20T02:02:31.613Z,8.91
2023-05-20T02:03:35.774Z,8.90
2023-05-20T02:04:40.042Z,8.87
2023-05-20T02:05:44.444Z,8.84
2023-05-20T02:06:48.573Z,8.82
2023-05-20T02:07:52.995Z,8.80
2023-05-20T02:08:57.232Z,8.79
2023-05-20T02:10:01.520Z,8.78
2023-05-20T02:11:05.716Z,8.76
2023-05-20T02:12:10.075Z,8.75
2023-05-20T02:13:14.421Z,8.73
2023-05-20T02:14:18.586Z,8.72
2023-05-20T02:15:22.905Z,8.71
2023-05-20T02:16:27.122Z,8.71
2023-05-20T02:17:31.497Z,8.71
2023-05-20T02:18:35.669Z,8.71
2023-05-20T02:19:39.920Z,8.70
2023-05-20T02:20:58.133Z,8.69
2023-05-20T02:22:01.336Z,8.68
2023-05-20T02:23:05.499Z,8.68
2023-05-20T02:24:09.831Z,8.67
2023-05-20T02:25:14.102Z,8.66
2023-05-20T02:26:18.401Z,8.65
2023-05-20T02:27:22.582Z,8.64
2023-05-20T02:28:26.933Z,8.63
2023-05-20T02:29:31.103Z,8.61
2023-05-20T02:30:35.383Z,8.59
2023-05-20T02:31:39.609Z,8.57
2023-05-20T02:32:43.888Z,8.56
2023-05-20T02:33:48.158Z,8.55
2023-05-20T02:34:52.366Z,8.54
2023-05-20T02:35:56.625Z,8.53
2023-05-20T02:37:00.826Z,8.52
2023-05-20T02:38:05.056Z,8.51
2023-05-20T02:39:09.441Z,8.50
2023-05-20T02:40:13.665Z,8.49
2023-05-20T02:41:17.896Z,8.47
2023-05-20T02:42:22.221Z,8.45
2023-05-20T02:43:26.449Z,8.44
2023-05-20T02:44:30.747Z,8.43
2023-05-20T02:45:34.990Z,8.43
2023-05-20T02:46:39.283Z,8.43
2023-05-20T02:47:43.452Z,8.44
2023-05-20T02:48:47.708Z,8.44
2023-05-20T02:49:51.927Z,8.45
2023-05-20T02:50:56.252Z,8.44
2023-05-20T02:52:00.529Z,8.43
2023-05-20T02:53:04.689Z,8.43
2023-05-20T02:54:08.948Z,8.42
2023-05-20T02:55:13.250Z,8.42
2023-05-20T02:56:17.487Z,8.42
2023-05-20T02:57:21.702Z,8.41
2023-05-20T02:58:25.973Z,8.42
2023-05-20T02:59:30.228Z,8.42
2023-05-20T03:00:34.479Z,8.42
2023-05-20T03:01:41.898Z,8.43
2023-05-20T03:02:45.190Z,8.42
2023-05-20T03:03:49.456Z,8.42
2023-05-20T03:04:53.819Z,8.41
2023-05-20T03:06:11.881Z,8.41
2023-05-20T03:07:15.124Z,8.41
2023-05-20T03:08:19.130Z,8.41
2023-05-20T03:09:23.454Z,8.40
2023-05-20T03:10:27.660Z,8.39
2023-05-20T03:11:31.961Z,8.38
2023-05-20T03:12:36.184Z,8.38
2023-05-20T03:13:40.420Z,8.37
2023-05-20T03:14:44.563Z,8.37
2023-05-20T03:15:48.981Z,8.37
2023-05-20T03:16:53.211Z,8.38
2023-05-20T03:17:57.477Z,8.38
2023-05-20T03:19:01.804Z,8.38
2023-05-20T03:20:06.028Z,8.38
2023-05-20T03:21:10.234Z,8.37
2023-05-20T03:22:14.536Z,8.37
2023-05-20T03:23:19.627Z,8.37
2023-05-20T03:24:23.528Z,8.38
2023-05-20T03:25:27.777Z,8.39
2023-05-20T03:26:32.057Z,8.40
2023-05-20T03:27:36.276Z,8.41
2023-05-20T03:28:40.478Z,8.43
2023-05-20T03:29:44.890Z,8.44
2023-05-20T03:30:49.011Z,8.44
2023-05-20T03:31:53.630Z,8.44
2023-05-20T03:32:57.614Z,8.44
2023-05-20T03:34:01.774Z,8.44
2023-05-20T03:35:05.997Z,8.45
2023-05-20T03:36:10.342Z,8.46
2023-05-20T03:37:14.533Z,8.47
2023-05-20T03:38:18.795Z,8.49
2023-05-20T03:39:23.135Z,8.51
2023-05-20T03:40:27.319Z,8.53
2023-05-20T03:41:31.645Z,8.55
2023-05-20T03:42:35.872Z,8.57
2023-05-20T03:43:40.190Z,8.58
2023-05-20T03:44:44.389Z,8.58
2023-05-20T03:45:48.625Z,8.59
2023-05-20T03:46:53.018Z,8.60
2023-05-20T03:47:57.182Z,8.60
2023-05-20T03:49:01.384Z,8.60
2023-05-20T03:50:05.644Z,8.61
2023-05-20T03:51:09.967Z,8.62
2023-05-20T03:52:14.288Z,8.64
2023-05-20T03:53:18.571Z,8.65
2023-05-20T03:54:22.768Z,8.66
2023-05-20T03:55:26.995Z,8.68
2023-05-20T03:56:31.242Z,8.69
2023-05-20T03:57:35.599Z,8.71
2023-05-20T03:58:39.983Z,8.73
2023-05-20T03:59:44.181Z,8.74
2023-05-20T04:00:48.477Z,8.75
2023-05-20T04:01:52.835Z,8.78
2023-05-20T04:02:57.038Z,8.80
2023-05-20T04:04:01.410Z,8.81
2023-05-20T04:05:05.620Z,8.83
2023-05-20T04:06:09.908Z,8.84
2023-05-20T04:07:14.247Z,8.86
2023-05-20T04:08:18.448Z,8.88
2023-05-20T04:09:22.758Z,8.91
2023-05-20T04:10:26.993Z,8.93
2023-05-20T04:11:31.344Z,8.96
2023-05-20T04:12:35.636Z,8.98
2023-05-20T04:13:39.940Z,8.99
2023-05-20T04:14:44.290Z,9.00
2023-05-20T04:15:48.603Z,9.01
2023-05-20T04:16:52.939Z,9.02
2023-05-20T04:17:57.239Z,9.03
2023-05-20T04:19:01.419Z,9.04
2023-05-20T04:20:05.615Z,9.06
2023-05-20T04:21:09.887Z,9.07
2023-05-20T04:22:14.135Z,9.08
2023-05-20T04:23:18.484Z,9.10
2023-05-20T04:24:22.690Z,9.11
2023-05-20T04:25:33.052Z,9.12
2023-05-20T04:26:35.940Z,9.14
2023-05-20T04:27:40.220Z,9.17
2023-05-20T04:28:44.508Z,9.19
2023-05-20T04:29:48.811Z,9.22
2023-05-20T04:30:53.153Z,9.24
2023-05-20T04:31:57.503Z,9.28
2023-05-20T04:33:01.799Z,9.31
2023-05-20T04:34:06.175Z,9.33
2023-05-20T04:35:10.479Z,9.36
2023-05-20T04:36:14.702Z,9.38
2023-05-20T04:37:18.945Z,9.41
2023-05-20T04:38:23.204Z,9.44
2023-05-20T04:39:27.452Z,9.45
2023-05-20T04:40:31.848Z,9.47
2023-05-20T04:41:36.106Z,9.49
2023-05-20T04:42:40.297Z,9.51
2023-05-20T04:43:50.839Z,9.53
2023-05-20T04:44:53.743Z,9.56
2023-05-20T04:45:58.094Z,9.59
2023-05-20T04:47:02.236Z,9.63
2023-05-20T04:48:06.580Z,9.66
2023-05-20T04:49:10.797Z,9.68
2023-05-20T04:50:15.174Z,9.72
2023-05-20T04:51:19.490Z,9.75
2023-05-20T04:52:23.756Z,9.79
2023-05-20T04:53:28.017Z,9.82
2023-05-20T04:54:32.321Z,9.86
2023-05-20T04:55:36.554Z,9.91
2023-05-20T04:56:40.959Z,9.96
2023-05-20T04:57:45.188Z,10.00
2023-05-20T04:58:49.613Z,10.05
2023-05-20T04:59:53.817Z,10.09
2023-05-20T05:00:58.120Z,10.13
2023-05-20T05:02:02.431Z,10.18
2023-05-20T05:03:06.740Z,10.22
2023-05-20T05:04:10.914Z,10.28
2023-05-20T05:05:15.103Z,10.33
2023-05-20T05:06:19.390Z,10.38
2023-05-20T05:07:23.639Z,10.43
2023-05-20T05:08:28.027Z,10.48
2023-05-20T05:09:34.250Z,10.54
2023-05-20T05:10:36.510Z,10.60
2023-05-20T05:11:40.797Z,10.66
2023-05-20T05:12:45.108Z,10.71
2023-05-20T05:13:49.355Z,10.75
2023-05-20T05:14:53.687Z,10.79
2023-05-20T05:15:58.074Z,10.84
2023-05-20T05:17:02.322Z,10.89
2023-05-20T05:18:06.751Z,10.95
2023-05-20T05:19:11.076Z,11.00
2023-05-20T05:20:15.384Z,11.06
2023-05-20T05:21:19.595Z,11.13
2023-05-20T05:22:23.891Z,11.19
2023-05-20T05:23:28.262Z,11.26
2023-05-20T05:24:32.589Z,11.32
2023-05-20T05:25:36.802Z,11.38
2023-05-20T05:26:41.193Z,11.44
2023-05-20T05:27:45.482Z,11.49
2023-05-20T05:29:03.785Z,11.56
2023-05-20T05:30:07.021Z,11.62
2023-05-20T05:31:11.267Z,11.69
2023-05-20T05:32:15.763Z,11.76
2023-05-20T05:33:19.868Z,11.84
2023-05-20T05:34:24.095Z,11.91
2023-05-20T05:35:28.407Z,11.97
2023-05-20T05:36:32.768Z,12.03
2023-05-20T05:37:37.070Z,12.09
2023-05-20T05:38:41.336Z,12.15
2023-05-20T05:39:45.637Z,12.21
2023-05-20T05:40:49.992Z,12.26
2023-05-20T05:41:54.300Z,12.30
2023-05-20T05:42:58.604Z,12.35
2023-05-20T05:44:02.918Z,12.41
2023-05-20T05:45:07.250Z,12.48
2023-05-20T05:46:11.541Z,12.55
2023-05-20T05:47:15.983Z,12.61
2023-05-20T05:48:20.251Z,12.68
2023-05-20T05:49:24.542Z,12.73
2023-05-20T05:50:28.893Z,12.79
2023-05-20T05:51:33.205Z,12.86
2023-05-20T05:52:37.613Z,12.95
2023-05-20T05:53:41.886Z,13.02
2023-05-20T05:54:46.315Z,13.03
2023-05-20T05:55:50.563Z,13.01
2023-05-20T05:56:54.818Z,13.05
2023-05-20T05:57:59.177Z,13.04
2023-05-20T05:59:03.554Z,13.05
2023-05-20T06:00:07.851Z,13.04
2023-05-20T06:01:12.243Z,13.02
2023-05-20T06:02:16.666Z,13.02
2023-05-20T06:03:20.983Z,13.02
2023-05-20T06:04:25.232Z,12.98
2023-05-20T06:05:31.231Z,12.97
2023-05-20T06:06:33.744Z,12.96
2023-05-20T06:07:38.075Z,12.95
2023-05-20T06:08:42.445Z,12.94
2023-05-20T06:09:46.710Z,12.94
2023-05-20T06:10:51.101Z,12.94
2023-05-20T06:11:55.417Z,12.94
2023-05-20T06:12:59.791Z,12.92
2023-05-20T06:14:04.101Z,12.94
2023-05-20T06:16:17.564Z,13.01
2023-05-20T06:18:49.045Z,13.11
2023-05-20T06:19:53.333Z,13.16
2023-05-20T06:20:57.591Z,13.20
2023-05-20T06:22:01.945Z,13.25
2023-05-20T06:23:06.279Z,13.30
2023-05-20T06:24:10.672Z,13.34
2023-05-20T06:25:14.916Z,13.36
2023-05-20T06:26:19.309Z,13.38
2023-05-20T06:27:23.612Z,13.43
2023-05-20T06:28:28.038Z,13.48
2023-05-20T06:29:32.261Z,13.55
2023-05-20T06:30:36.654Z,13.62
2023-05-20T06:31:41.002Z,13.73
2023-05-20T06:32:45.323Z,13.85
2023-05-20T06:33:49.649Z,13.96
2023-05-20T06:34:53.989Z,14.06
2023-05-20T06:35:58.409Z,14.15
2023-05-20T06:37:02.751Z,14.23
2023-05-20T06:38:07.086Z,14.31
2023-05-20T06:39:11.332Z,14.40
2023-05-20T06:40:15.790Z,14.48
2023-05-20T06:41:20.146Z,14.57
2023-05-20T06:42:24.512Z,14.69
2023-05-20T06:43:28.892Z,14.80
2023-05-20T06:44:33.251Z,14.91
2023-05-20T06:45:37.667Z,15.01
2023-05-20T06:46:42.090Z,15.09
2023-05-20T06:47:46.442Z,15.19
2023-05-20T06:48:50.782Z,15.33
2023-05-20T06:49:55.296Z,15.37
2023-05-20T06:51:02.648Z,15.38
2023-05-20T06:52:06.215Z,15.42
2023-05-20T06:53:12.800Z,15.42
2023-05-20T06:54:16.417Z,15.46
2023-05-20T06:55:20.830Z,15.48
2023-05-20T06:56:25.102Z,15.49
2023-05-20T06:57:29.515Z,15.47
2023-05-20T06:58:33.890Z,15.49
2023-05-20T06:59:38.278Z,15.47
2023-05-20T07:00:42.687Z,15.48
2023-05-20T07:01:47.050Z,15.47
2023-05-20T07:02:51.362Z,15.50
2023-05-20T07:03:58.727Z,15.48
2023-05-20T07:05:02.169Z,15.49
2023-05-20T07:06:06.554Z,15.48
2023-05-20T07:07:10.910Z,15.49
2023-05-20T07:08:15.303Z,15.46
2023-05-20T07:09:19.759Z,15.47
2023-05-20T07:10:24.143Z,15.47
2023-05-20T07:11:28.438Z,15.52
2023-05-20T07:12:34.348Z,15.56
2023-05-20T07:13:37.071Z,15.57
2023-05-20T07:14:47.403Z,15.56
2023-05-20T07:15:50.422Z,15.54
2023-05-20T07:16:54.712Z,15.55
2023-05-20T07:17:59.096Z,15.57
2023-05-20T07:19:03.458Z,15.60
2023-05-20T07:20:07.787Z,15.62
2023-05-20T07:21:12.156Z,15.64
2023-05-20T07:22:16.478Z,15.66
2023-05-20T07:23:20.814Z,15.67
2023-05-20T07:24:31.251Z,15.73
2023-05-20T07:25:34.485Z,15.77
2023-05-20T07:26:38.525Z,15.79
2023-05-20T07:27:42.937Z,15.84
2023-05-20T07:28:47.344Z,15.87
2023-05-20T07:29:51.619Z,15.85
2023-05-20T07:30:56.470Z,15.89
2023-05-20T07:32:00.539Z,15.94
2023-05-20T07:33:04.809Z,15.93
2023-05-20T07:34:09.259Z,15.96
2023-05-20T07:35:13.530Z,15.97
2023-05-20T07:36:32.122Z,15.96
2023-05-20T07:37:49.457Z,15.92
2023-05-20T07:39:02.684Z,15.94
2023-05-20T07:39:56.914Z,15.91
2023-05-20T07:41:01.255Z,15.89
2023-05-20T07:42:05.676Z,15.89
2023-05-20T07:43:09.979Z,15.89
2023-05-20T07:44:14.370Z,15.90
2023-05-20T07:45:18.674Z,15.90
2023-05-20T07:46:23.233Z,15.91
2023-05-20T07:47:27.559Z,15.93
2023-05-20T07:48:32.017Z,15.96
2023-05-20T07:49:36.350Z,15.99
2023-05-20T07:50:40.666Z,15.95
2023-05-20T07:51:45.032Z,15.99
2023-05-20T07:52:56.620Z,15.99
2023-05-20T07:53:53.783Z,15.99
2023-05-20T07:54:58.098Z,16.03
2023-05-20T07:56:02.536Z,16.08
2023-05-20T07:57:06.992Z,16.13
2023-05-20T07:58:25.314Z,16.19
2023-05-20T07:59:28.243Z,16.25
2023-05-20T08:00:32.440Z,16.29
2023-05-20T08:01:36.910Z,16.31
2023-05-20T08:02:41.391Z,16.28
2023-05-20T08:03:45.685Z,16.14
2023-05-20T08:04:49.975Z,16.12
2023-05-20T08:05:54.373Z,16.16
2023-05-20T08:06:58.820Z,16.21
2023-05-20T08:08:03.098Z,16.30
2023-05-20T08:09:07.555Z,16.40
2023-05-20T08:10:11.999Z,16.46
2023-05-20T08:11:16.235Z,16.52
2023-05-20T08:12:20.782Z,16.55
2023-05-20T08:13:25.072Z,16.57
2023-05-20T08:14:29.403Z,16.63
2023-05-20T08:15:33.912Z,16.72
2023-05-20T08:16:38.151Z,16.73
2023-05-20T08:17:42.624Z,16.76
2023-05-20T08:18:46.948Z,16.80
2023-05-20T08:19:51.258Z,16.83
2023-05-20T08:20:55.756Z,16.82
2023-05-20T08:22:00.042Z,16.90
2023-05-20T08:23:04.497Z,16.94
2023-05-20T08:24:08.921Z,16.99
2023-05-20T08:25:13.291Z,16.96
2023-05-20T08:26:17.658Z,16.94
2023-05-20T08:27:21.959Z,16.90
2023-05-20T08:28:26.328Z,16.86
2023-05-20T08:29:30.719Z,16.76
2023-05-20T08:30:35.005Z,16.72
2023-05-20T08:31:39.399Z,16.70
2023-05-20T08:32:43.714Z,16.68
2023-05-20T08:33:48.052Z,16.68
2023-05-20T08:34:52.342Z,16.70
2023-05-20T08:35:56.718Z,16.74
2023-05-20T08:37:01.064Z,16.77
2023-05-20T08:38:05.420Z,16.70
2023-05-20T08:39:09.842Z,16.68
2023-05-20T08:40:14.148Z,16.69
2023-05-20T08:41:18.501Z,16.70
2023-05-20T08:42:22.830Z,16.71
2023-05-20T08:43:27.253Z,16.71
2023-05-20T08:44:31.543Z,16.72
2023-05-20T08:45:36.176Z,16.75
2023-05-20T08:46:40.395Z,16.76
2023-05-20T08:47:44.681Z,16.76
2023-05-20T08:48:48.994Z,16.72
2023-05-20T08:49:53.365Z,16.70
2023-05-20T08:50:57.713Z,16.69
2023-05-20T08:52:02.157Z,16.63
2023-05-20T08:53:06.598Z,16.61
2023-05-20T08:54:10.876Z,16.49
2023-05-20T08:55:15.197Z,16.48
2023-05-20T08:56:19.585Z,16.47
2023-05-20T08:57:23.906Z,16.44
2023-05-20T08:58:28.222Z,16.37
2023-05-20T08:59:32.684Z,16.35
2023-05-20T09:00:37.024Z,16.32
2023-05-20T09:01:41.475Z,16.30
2023-05-20T09:02:45.735Z,16.29
2023-05-20T09:03:50.153Z,16.31
2023-05-20T09:04:54.471Z,16.33
2023-05-20T09:05:58.860Z,16.35
2023-05-20T09:07:03.314Z,16.35
2023-05-20T09:08:07.619Z,16.30
2023-05-20T09:09:12.127Z,16.30
2023-05-20T09:10:16.459Z,16.27
2023-05-20T09:11:20.882Z,16.22
2023-05-20T09:12:25.385Z,16.22
2023-05-20T09:13:29.602Z,16.23
2023-05-20T09:14:33.996Z,16.25
2023-05-20T09:15:38.458Z,16.24
2023-05-20T09:16:42.818Z,16.24
2023-05-20T09:17:47.198Z,16.24
2023-05-20T09:18:51.581Z,16.22
2023-05-20T09:19:55.962Z,16.20
2023-05-20T09:21:00.278Z,16.15
2023-05-20T09:22:04.635Z,16.10
2023-05-20T09:23:09.014Z,16.05
2023-05-20T09:24:19.422Z,16.01
2023-05-20T09:25:23.891Z,15.97
2023-05-20T09:26:26.856Z,15.93
2023-05-20T09:27:31.309Z,15.90
2023-05-20T09:28:35.612Z,15.87
2023-05-20T09:29:39.905Z,15.84
2023-05-20T09:30:46.019Z,15.82
2023-05-20T09:31:48.721Z,15.81
2023-05-20T09:32:53.039Z,15.79
2023-05-20T09:33:57.301Z,15.73
2023-05-20T09:35:01.668Z,15.72
2023-05-20T09:36:06.054Z,15.74
2023-05-20T09:37:10.339Z,15.74
2023-05-20T09:38:14.787Z,15.75
2023-05-20T09:39:25.078Z,15.79
2023-05-20T09:40:28.193Z,15.83
2023-05-20T09:41:32.471Z,15.86
2023-05-20T09:42:37.030Z,15.90
2023-05-20T09:43:41.198Z,15.92
2023-05-20T09:44:45.575Z,15.93
2023-05-20T09:45:56.180Z,15.91
2023-05-20T09:46:59.099Z,15.88
2023-05-20T09:48:03.546Z,15.84
2023-05-20T09:49:07.923Z,15.84
2023-05-20T09:50:12.182Z,15.84
2023-05-20T09:51:16.546Z,15.85
2023-05-20T09:52:21.618Z,15.83
2023-05-20T09:53:25.153Z,15.82
2023-05-20T09:54:29.660Z,15.80
2023-05-20T09:55:34.444Z,15.82
2023-05-20T09:56:38.323Z,15.83
2023-05-20T09:57:42.700Z,15.84
2023-05-20T09:58:47.212Z,15.85
2023-05-20T09:59:51.492Z,15.85
2023-05-20T10:00:55.935Z,15.82
2023-05-20T10:02:00.267Z,15.78
2023-05-20T10:03:04.844Z,15.74
2023-05-20T10:04:09.008Z,15.70
2023-05-20T10:05:13.336Z,15.66
2023-05-20T10:06:17.692Z,15.64
2023-05-20T10:07:41.243Z,15.64
2023-05-20T10:08:31.076Z,15.63
2023-05-20T10:09:35.335Z,15.64
2023-05-20T10:10:39.689Z,15.65
2023-05-20T10:11:44.042Z,15.68
2023-05-20T10:12:48.507Z,15.70
2023-05-20T10:13:52.767Z,15.72
2023-05-20T10:14:57.227Z,15.73
2023-05-20T10:16:01.640Z,15.75
2023-05-20T10:17:06.105Z,15.74
2023-05-20T10:18:10.450Z,15.76
2023-05-20T10:19:15.016Z,15.80
2023-05-20T10:20:19.245Z,15.85
2023-05-20T10:21:23.572Z,15.91
2023-05-20T10:22:28.000Z,16.00
2023-05-20T10:23:32.314Z,16.08
2023-05-20T10:24:36.760Z,16.15
2023-05-20T10:25:41.059Z,16.23
2023-05-20T10:26:45.416Z,16.29
2023-05-20T10:27:49.862Z,16.35
2023-05-20T10:28:54.226Z,16.38
2023-05-20T10:29:58.719Z,16.40
2023-05-20T10:31:02.982Z,16.40
2023-05-20T10:32:07.535Z,16.38
2023-05-20T10:33:11.890Z,16.36
2023-05-20T10:34:16.191Z,16.32
2023-05-20T10:35:20.567Z,16.28
2023-05-20T10:36:24.881Z,16.22
2023-05-20T10:37:29.323Z,16.18
2023-05-20T10:38:33.636Z,16.13
2023-05-20T10:39:38.083Z,16.13
2023-05-20T10:40:42.340Z,16.15
2023-05-20T10:41:46.646Z,16.17
2023-05-20T10:42:51.125Z,16.21
2023-05-20T10:43:55.514Z,16.26
2023-05-20T10:44:59.886Z,16.34
2023-05-20T10:46:07.549Z,16.43
2023-05-20T10:47:24.805Z,16.53
2023-05-20T10:48:13.025Z,16.60
2023-05-20T10:49:17.488Z,16.70
2023-05-20T10:50:21.644Z,16.80
2023-05-20T10:51:26.022Z,16.89
2023-05-20T10:52:30.389Z,16.97
2023-05-20T10:53:34.907Z,17.03
2023-05-20T10:54:39.186Z,17.05
2023-05-20T10:55:43.497Z,17.07
2023-05-20T10:56:47.848Z,17.05
2023-05-20T10:57:52.339Z,17.07
2023-05-20T10:58:56.637Z,17.09
2023-05-20T11:00:01.121Z,17.07
2023-05-20T11:01:05.496Z,17.03
2023-05-20T11:02:09.739Z,17.00
2023-05-20T11:03:14.212Z,16.99
2023-05-20T11:04:18.486Z,16.94
2023-05-20T11:05:22.877Z,16.89
2023-05-20T11:06:27.166Z,16.86
2023-05-20T11:07:31.513Z,16.83
2023-05-20T11:08:36.001Z,16.81
2023-05-20T11:09:40.322Z,16.74
2023-05-20T11:10:44.785Z,16.69
2023-05-20T11:11:49.219Z,16.63
2023-05-20T11:12:53.510Z,16.59
2023-05-20T11:13:57.809Z,16.55
2023-05-20T11:15:02.161Z,16.52
2023-05-20T11:16:06.665Z,16.50
2023-05-20T11:17:10.905Z,16.50
2023-05-20T11:18:17.030Z,16.52
2023-05-20T11:19:19.809Z,16.51
2023-05-20T11:20:24.183Z,16.53
2023-05-20T11:21:28.630Z,16.57
2023-05-20T11:22:32.876Z,16.62
2023-05-20T11:23:39.887Z,16.67
2023-05-20T11:24:41.614Z,16.70
2023-05-20T11:25:46.089Z,16.71
2023-05-20T11:26:50.528Z,16.70
2023-05-20T11:27:54.844Z,16.65
2023-05-20T11:29:01.292Z,16.63
2023-05-20T11:30:03.650Z,16.61
2023-05-20T11:31:08.139Z,16.59
2023-05-20T11:32:12.448Z,16.57
2023-05-20T11:33:16.809Z,16.55
2023-05-20T11:34:23.253Z,16.54
2023-05-20T11:35:25.623Z,16.51
2023-05-20T11:36:29.936Z,16.50
2023-05-20T11:37:34.368Z,16.48
2023-05-20T11:38:38.741Z,16.47
2023-05-20T11:39:43.140Z,16.46
2023-05-20T11:40:51.074Z,16.44
2023-05-20T11:41:51.900Z,16.40
2023-05-20T11:42:56.294Z,16.38
2023-05-20T11:44:00.784Z,16.36
2023-05-20T11:45:04.970Z,16.33
2023-05-20T11:46:09.432Z,16.29
2023-05-20T11:47:13.782Z,16.27
2023-05-20T11:48:18.219Z,16.25
2023-05-20T11:49:22.578Z,16.23
2023-05-20T11:50:27.068Z,16.23
2023-05-20T11:51:31.352Z,16.23
2023-05-20T11:52:35.848Z,16.23
2023-05-20T11:53:40.163Z,16.17
2023-05-20T11:54:44.502Z,16.16
2023-05-20T11:55:48.860Z,16.16
2023-05-20T11:56:53.194Z,16.18
2023-05-20T11:57:57.530Z,16.18
2023-05-20T11:59:01.978Z,16.17
2023-05-20T12:00:06.364Z,16.17
2023-05-20T12:01:21.807Z,16.16
2023-05-20T12:02:16.120Z,16.16
2023-05-20T12:03:19.561Z,16.15
2023-05-20T12:04:23.804Z,16.15
2023-05-20T12:05:28.024Z,16.16
2023-05-20T12:06:32.399Z,16.16
2023-05-20T12:07:36.733Z,16.14
2023-05-20T12:08:41.213Z,16.13
2023-05-20T12:09:45.649Z,16.10
2023-05-20T12:10:50.058Z,16.08
2023-05-20T12:11:54.291Z,16.05
2023-05-20T12:13:01.773Z,16.03
2023-05-20T12:14:05.138Z,16.02
2023-05-20T12:15:09.448Z,16.02
2023-05-20T12:16:13.795Z,16.01
2023-05-20T12:17:18.147Z,16.00
2023-05-20T12:18:22.455Z,16.00
2023-05-20T12:19:26.871Z,16.00
2023-05-20T12:20:31.274Z,15.99
2023-05-20T12:21:35.535Z,15.99
2023-05-20T12:22:39.966Z,15.99
2023-05-20T12:23:44.390Z,15.99
2023-05-20T12:24:48.698Z,15.99
2023-05-20T12:25:53.019Z,15.98
2023-05-20T12:26:57.382Z,15.98
2023-05-20T12:28:01.775Z,15.98
2023-05-20T12:29:06.094Z,15.99
2023-05-20T12:30:10.450Z,16.00
2023-05-20T12:31:14.958Z,16.01
2023-05-20T12:32:19.316Z,16.03
2023-05-20T12:33:23.723Z,16.03
2023-05-20T12:34:28.035Z,16.04
2023-05-20T12:35:32.522Z,16.03
2023-05-20T12:36:36.868Z,16.02
2023-05-20T12:37:41.265Z,16.04
2023-05-20T12:38:45.526Z,16.05
2023-05-20T12:39:49.852Z,16.06
2023-05-20T12:40:54.181Z,16.06
2023-05-20T12:41:58.619Z,16.04
2023-05-20T12:43:02.993Z,16.03
2023-05-20T12:44:07.439Z,16.01
2023-05-20T12:45:11.697Z,16.00
2023-05-20T12:46:16.172Z,16.01
2023-05-20T12:47:20.559Z,16.01
2023-05-20T12:48:24.896Z,16.02
2023-05-20T12:49:29.303Z,16.00
2023-05-20T12:50:33.950Z,16.00
2023-05-20T12:51:38.113Z,16.00
2023-05-20T12:52:42.401Z,16.01
2023-05-20T12:53:46.722Z,15.99
2023-05-20T12:54:51.124Z,16.00
2023-05-20T12:55:55.472Z,16.01
2023-05-20T12:56:59.788Z,16.03
2023-05-20T12:58:04.088Z,16.07
2023-05-20T12:59:08.564Z,16.09
2023-05-20T13:00:12.839Z,16.12
2023-05-20T13:01:17.202Z,16.15
2023-05-20T13:02:21.551Z,16.18
2023-05-20T13:03:25.906Z,16.21
2023-05-20T13:04:30.354Z,16.25
2023-05-20T13:05:34.621Z,16.30
2023-05-20T13:06:39.095Z,16.33
2023-05-20T13:07:57.500Z,16.36
2023-05-20T13:09:00.878Z,16.40
2023-05-20T13:10:05.237Z,16.41
2023-05-20T13:11:09.472Z,16.43
2023-05-20T13:12:13.888Z,16.45
2023-05-20T13:13:18.281Z,16.47
2023-05-20T13:14:22.558Z,16.47
2023-05-20T13:15:26.872Z,16.46
2023-05-20T13:16:31.274Z,16.48
2023-05-20T13:17:35.682Z,16.51
2023-05-20T13:18:40.141Z,16.52
2023-05-20T13:19:44.416Z,16.54
2023-05-20T13:20:48.825Z,16.55
2023-05-20T13:21:53.152Z,16.56
2023-05-20T13:22:57.556Z,16.56
2023-05-20T13:24:01.945Z,16.56
2023-05-20T13:25:06.304Z,16.55
2023-05-20T13:26:10.715Z,16.56
2023-05-20T13:27:15.105Z,16.55
2023-05-20T13:28:19.552Z,16.54
2023-05-20T13:29:23.897Z,16.53
2023-05-20T13:30:28.343Z,16.52
2023-05-20T13:31:32.653Z,16.52
2023-05-20T13:32:36.993Z,16.51
2023-05-20T13:33:41.436Z,16.51
2023-05-20T13:34:45.702Z,16.50
2023-05-20T13:35:50.139Z,16.52
2023-05-20T13:36:54.539Z,16.53
2023-05-20T13:37:58.970Z,16.55
2023-05-20T13:39:03.350Z,16.58
2023-05-20T13:40:07.811Z,16.62
2023-05-20T13:41:18.005Z,16.64
2023-05-20T13:42:21.174Z,16.69
2023-05-20T13:43:25.474Z,16.73
2023-05-20T13:44:30.620Z,16.77
2023-05-20T13:45:34.214Z,16.82
2023-05-20T13:46:38.639Z,16.86
2023-05-20T13:47:49.158Z,16.89
2023-05-20T13:48:52.106Z,16.91
2023-05-20T13:49:56.466Z,16.94
2023-05-20T13:51:00.766Z,16.97
2023-05-20T13:52:05.248Z,17.00
2023-05-20T13:53:09.706Z,17.04
2023-05-20T13:54:14.007Z,17.06
2023-05-20T13:55:18.445Z,17.09
2023-05-20T13:56:22.804Z,17.10
2023-05-20T13:57:27.187Z,17.12
2023-05-20T13:58:31.529Z,17.13
2023-05-20T13:59:36.040Z,17.11
2023-05-20T14:00:40.345Z,17.12
2023-05-20T14:01:44.778Z,17.11
2023-05-20T14:02:49.264Z,17.12
2023-05-20T14:03:53.775Z,17.13